createdAt,value
2022-08-25T00:01:58.388Z,101080.97
2022-08-25T00:04:25.599Z,101080.16
2022-08-25T00:06:53.547Z,101074.91
2022-08-25T00:09:24.152Z,101075.81
2022-08-25T00:11:51.853Z,101083.22
2022-08-25T00:14:24.189Z,101089.34
2022-08-25T00:16:50.754Z,101077.13
2022-08-25T00:19:26.782Z,101083.75
2022-08-25T00:21:55.723Z,101079.19
2022-08-25T00:24:22.485Z,101078.38
2022-08-25T00:26:52.839Z,101085.78
2022-08-25T00:29:19.656Z,101082.13
2022-08-25T00:31:47.638Z,101087.03
2022-08-25T00:34:18.562Z,101094.44
2022-08-25T00:36:45.408Z,101086.31
2022-08-25T00:39:12.204Z,101090.06
2022-08-25T00:41:42.266Z,101095.84
2022-08-25T00:44:11.911Z,101090.69
2022-08-25T00:46:43.102Z,101089.16
2022-08-25T00:49:16.408Z,101090.47
2022-08-25T00:52:00.345Z,101087.34
2022-08-25T00:54:32.106Z,101089.47
2022-08-25T00:57:00.243Z,101093.22
2022-08-25T00:59:28.005Z,101101.06
2022-08-25T01:01:55.251Z,101093.34
2022-08-25T01:04:22.584Z,101101.19
2022-08-25T01:06:49.638Z,101093.50
2022-08-25T01:09:17.623Z,101097.25
2022-08-25T01:11:45.827Z,101087.97
2022-08-25T01:14:16.130Z,101100.25
2022-08-25T01:16:43.938Z,101093.00
2022-08-25T01:19:15.530Z,101089.00
2022-08-25T01:21:48.836Z,101086.66
2022-08-25T01:24:40.024Z,101087.97
2022-08-25T01:27:07.905Z,101086.72
2022-08-25T01:29:36.115Z,101088.44
2022-08-25T01:32:07.211Z,101086.44
2022-08-25T01:34:37.125Z,101087.69
2022-08-25T01:37:05.347Z,101089.38
2022-08-25T01:39:38.962Z,101088.13
2022-08-25T01:42:28.415Z,101095.50
2022-08-25T01:44:55.289Z,101089.81
2022-08-25T01:47:21.909Z,101091.94
2022-08-25T01:49:48.624Z,101088.28
2022-08-25T01:52:24.283Z,101096.53
2022-08-25T01:54:51.172Z,101092.44
2022-08-25T01:57:17.903Z,101094.09
2022-08-25T01:59:45.088Z,101086.00
2022-08-25T02:02:12.102Z,101086.44
2022-08-25T02:04:39.530Z,101088.88
2022-08-25T02:07:09.110Z,101083.63
2022-08-25T02:09:37.501Z,101080.44
2022-08-25T02:12:04.324Z,101080.03
2022-08-25T02:14:31.025Z,101079.31
2022-08-25T02:16:57.734Z,101080.19
2022-08-25T02:19:25.922Z,101086.75
2022-08-25T02:21:53.556Z,101078.28
2022-08-25T02:24:20.190Z,101080.75
2022-08-25T02:26:46.841Z,101092.22
2022-08-25T02:29:13.754Z,101083.75
2022-08-25T02:31:40.345Z,101085.88
2022-08-25T02:34:08.723Z,101081.03
2022-08-25T02:36:35.883Z,101081.88
2022-08-25T02:39:03.184Z,101081.19
2022-08-25T02:41:31.784Z,101077.94
2022-08-25T02:43:59.878Z,101078.81
2022-08-25T02:46:27.241Z,101083.78
2022-08-25T02:48:55.269Z,101076.91
2022-08-25T02:51:23.704Z,101083.88
2022-08-25T02:53:50.472Z,101084.78
2022-08-25T02:56:19.139Z,101093.34
2022-08-25T02:58:47.453Z,101095.00
2022-08-25T03:01:15.238Z,101085.28
2022-08-25T03:03:44.541Z,101095.94
2022-08-25T03:06:14.740Z,101093.56
2022-08-25T03:08:42.417Z,101087.13
2022-08-25T03:11:09.655Z,101083.09
2022-08-25T03:13:36.323Z,101078.72
2022-08-25T03:16:04.547Z,101077.53
2022-08-25T03:18:31.389Z,101082.84
2022-08-25T03:20:59.109Z,101081.31
2022-08-25T03:23:25.922Z,101076.47
2022-08-25T03:26:15.976Z,101076.94
2022-08-25T03:28:42.688Z,101073.34
2022-08-25T03:31:09.463Z,101072.59
2022-08-25T03:33:38.352Z,101073.47
2022-08-25T03:36:06.670Z,101075.56
2022-08-25T03:38:33.405Z,101074.75
2022-08-25T03:41:00.035Z,101061.38
2022-08-25T03:43:26.518Z,101063.84
2022-08-25T03:45:53.274Z,101056.97
2022-08-25T03:48:20.003Z,101055.34
2022-08-25T03:50:51.206Z,101056.19
2022-08-25T03:53:19.024Z,101050.16
2022-08-25T03:55:45.736Z,101051.00
2022-08-25T03:58:12.405Z,101055.50
2022-08-25T04:00:39.377Z,101050.25
2022-08-25T04:03:06.205Z,101057.97
2022-08-25T04:05:32.943Z,101050.31
2022-08-25T04:08:01.747Z,101052.34
2022-08-25T04:10:28.865Z,101059.25
2022-08-25T04:12:55.996Z,101054.00
2022-08-25T04:15:22.914Z,101055.22
2022-08-25T04:17:50.529Z,101050.78
2022-08-25T04:20:19.038Z,101050.41
2022-08-25T04:22:45.716Z,101051.63
2022-08-25T04:25:12.812Z,101048.00
2022-08-25T04:27:40.148Z,101052.06
2022-08-25T04:30:07.119Z,101050.44
2022-08-25T04:32:36.244Z,101049.63
2022-08-25T04:35:04.293Z,101050.44
2022-08-25T04:37:31.099Z,101045.59
2022-08-25T04:39:57.654Z,101049.63
2022-08-25T04:42:26.332Z,101039.94
2022-08-25T04:44:52.874Z,101037.13
2022-08-25T04:47:19.349Z,101034.34
2022-08-25T04:49:45.917Z,101031.56
2022-08-25T04:52:13.147Z,101034.81
2022-08-25T04:54:41.269Z,101034.06
2022-08-25T04:57:07.911Z,101038.94
2022-08-25T04:59:34.463Z,101033.69
2022-08-25T05:02:05.610Z,101030.84
2022-08-25T05:04:35.071Z,101025.59
2022-08-25T05:07:02.037Z,101028.00
2022-08-25T05:09:29.204Z,101031.66
2022-08-25T05:11:59.832Z,101034.84
2022-08-25T05:14:26.846Z,101040.94
2022-08-25T05:16:57.987Z,101042.06
2022-08-25T05:19:25.303Z,101043.09
2022-08-25T05:21:52.477Z,101046.09
2022-08-25T05:24:19.608Z,101049.56
2022-08-25T05:26:46.278Z,101053.84
2022-08-25T05:29:13.258Z,101051.56
2022-08-25T05:31:43.926Z,101050.13
2022-08-25T05:34:12.562Z,101047.91
2022-08-25T05:36:43.249Z,101051.06
2022-08-25T05:39:10.612Z,101040.84
2022-08-25T05:41:37.255Z,101042.88
2022-08-25T05:44:04.142Z,101039.22
2022-08-25T05:46:31.873Z,101030.69
2022-08-25T05:48:59.165Z,101025.81
2022-08-25T05:51:26.625Z,101029.13
2022-08-25T05:53:53.296Z,101022.22
2022-08-25T05:56:20.112Z,101027.13
2022-08-25T05:58:47.058Z,101026.31
2022-08-25T06:01:45.504Z,101024.72
2022-08-25T06:04:13.459Z,101035.97
2022-08-25T06:06:40.411Z,101019.31
2022-08-25T06:09:08.842Z,101028.19
2022-08-25T06:11:36.228Z,101016.31
2022-08-25T06:14:03.078Z,101019.00
2022-08-25T06:16:29.637Z,101019.84
2022-08-25T06:18:56.343Z,101017.00
2022-08-25T06:21:22.874Z,101015.31
2022-08-25T06:23:50.317Z,101019.34
2022-08-25T06:26:20.947Z,101016.84
2022-08-25T06:28:49.128Z,101015.53
2022-08-25T06:31:15.737Z,101014.22
2022-08-25T06:33:42.399Z,101016.56
2022-08-25T06:36:08.988Z,101017.66
2022-08-25T06:38:36.091Z,101016.28
2022-08-25T06:41:08.338Z,101023.44
2022-08-25T06:43:35.015Z,101016.69
2022-08-25T06:46:12.652Z,101014.31
2022-08-25T06:48:39.432Z,101012.31
2022-08-25T06:51:13.872Z,101028.28
2022-08-25T06:53:41.595Z,101024.75
2022-08-25T06:56:08.501Z,101020.88
2022-08-25T06:58:35.388Z,101021.47
2022-08-25T07:01:28.240Z,101020.94
2022-08-25T07:04:00.603Z,101027.22
2022-08-25T07:06:29.487Z,101021.78
2022-08-25T07:08:55.982Z,101018.72
2022-08-25T07:11:22.590Z,101031.19
2022-08-25T07:13:50.511Z,101018.84
2022-08-25T07:16:19.182Z,101023.53
2022-08-25T07:18:47.313Z,101031.47
2022-08-25T07:21:14.847Z,101025.56
2022-08-25T07:23:41.953Z,101031.78
2022-08-25T07:26:36.389Z,101039.28
2022-08-25T07:29:01.830Z,101037.19
2022-08-25T07:31:30.278Z,101032.31
2022-08-25T07:34:16.369Z,101031.09
2022-08-25T07:36:43.511Z,101037.50
2022-08-25T07:39:10.263Z,101038.59
2022-08-25T07:41:39.513Z,101037.00
2022-08-25T07:44:06.846Z,101030.47
2022-08-25T07:46:35.203Z,101028.88
2022-08-25T07:49:16.299Z,101036.00
2022-08-25T07:52:03.254Z,101026.47
2022-08-25T07:54:40.000Z,101026.00
2022-08-25T07:57:09.174Z,101027.78
2022-08-25T07:59:40.474Z,101025.00
2022-08-25T08:02:17.784Z,101029.09
2022-08-25T08:04:48.474Z,101021.13
2022-08-25T08:07:41.954Z,101014.91
2022-08-25T08:10:42.452Z,101015.13
2022-08-25T08:12:58.662Z,101015.50
2022-08-25T08:15:25.269Z,101003.88
2022-08-25T08:17:56.323Z,100997.22
2022-08-25T08:20:24.888Z,100984.63
2022-08-25T08:22:51.544Z,100988.00
2022-08-25T08:25:18.745Z,100989.50
2022-08-25T08:27:48.832Z,100993.06
2022-08-25T08:30:15.523Z,100992.69
2022-08-25T08:33:08.726Z,100997.81
2022-08-25T08:35:28.611Z,101000.22
2022-08-25T08:37:55.088Z,100996.31
2022-08-25T08:40:21.946Z,100991.53
2022-08-25T08:43:02.497Z,100996.22
2022-08-25T08:45:35.540Z,100981.91
2022-08-25T08:48:33.115Z,100978.84
2022-08-25T08:51:15.062Z,100975.84
2022-08-25T08:53:57.125Z,100978.28
2022-08-25T08:56:30.746Z,100974.97
2022-08-25T08:59:09.939Z,100973.78
2022-08-25T09:01:53.238Z,100966.28
2022-08-25T09:04:29.582Z,100964.00
2022-08-25T09:06:59.892Z,100956.06
2022-08-25T09:09:35.727Z,100959.09
2022-08-25T09:12:33.526Z,100951.56
2022-08-25T09:15:12.835Z,100945.72
2022-08-25T09:17:54.776Z,100957.13
2022-08-25T09:20:39.141Z,100951.25
2022-08-25T09:23:30.410Z,100944.09
2022-08-25T09:26:30.894Z,100942.41
2022-08-25T09:29:21.339Z,100931.34
2022-08-25T09:31:48.534Z,100942.91
2022-08-25T09:34:22.260Z,100940.44
2022-08-25T09:36:52.815Z,100936.97
2022-08-25T09:39:21.072Z,100936.06
2022-08-25T09:41:56.016Z,100937.81
2022-08-25T09:44:43.920Z,100938.97
2022-08-25T09:47:22.368Z,100928.53
2022-08-25T09:50:01.177Z,100921.16
2022-08-25T09:52:41.459Z,100913.31
2022-08-25T09:55:08.367Z,100910.91
2022-08-25T09:57:45.960Z,100900.06
2022-08-25T10:00:18.857Z,100897.69
2022-08-25T10:03:00.830Z,100897.16
2022-08-25T10:05:35.444Z,100894.72
2022-08-25T10:08:11.537Z,100887.34
2022-08-25T10:10:46.219Z,100882.38
2022-08-25T10:13:22.617Z,100889.41
2022-08-25T10:16:05.452Z,100866.00
2022-08-25T10:19:01.235Z,100864.44
2022-08-25T10:21:28.163Z,100866.00
2022-08-25T10:23:57.501Z,100864.75
2022-08-25T10:26:39.336Z,100858.38
2022-08-25T10:29:27.462Z,100866.53
2022-08-25T10:31:56.007Z,100851.41
2022-08-25T10:34:45.288Z,100852.72
2022-08-25T10:37:38.651Z,100843.34
2022-08-25T10:40:32.420Z,100836.34
2022-08-25T10:43:07.913Z,100834.84
2022-08-25T10:45:52.544Z,100841.91
2022-08-25T10:49:04.136Z,100826.69
2022-08-25T10:51:40.948Z,100819.09
2022-08-25T10:54:26.133Z,100813.31
2022-08-25T10:56:53.166Z,100812.59
2022-08-25T10:59:34.642Z,100822.56
2022-08-25T11:02:22.628Z,100815.78
2022-08-25T11:04:53.170Z,100817.25
2022-08-25T11:07:33.443Z,100813.63
2022-08-25T11:10:07.328Z,100801.84
2022-08-25T11:12:38.416Z,100811.59
2022-08-25T11:15:19.147Z,100808.69
2022-08-25T11:17:53.884Z,100797.50
2022-08-25T11:20:44.970Z,100801.16
2022-08-25T11:23:20.193Z,100804.31
2022-08-25T11:25:52.668Z,100798.56
2022-08-25T11:28:39.451Z,100804.84
2022-08-25T11:31:09.598Z,100794.94
2022-08-25T11:33:36.498Z,100791.84
2022-08-25T11:36:12.829Z,100795.28
2022-08-25T11:38:51.574Z,100802.06
2022-08-25T11:41:34.655Z,100797.09
2022-08-25T11:44:13.270Z,100788.22
2022-08-25T11:47:03.794Z,100796.88
2022-08-25T11:49:50.492Z,100794.56
2022-08-25T11:52:46.000Z,100795.34
2022-08-25T11:55:17.932Z,100793.81
2022-08-25T11:57:53.598Z,100786.47
2022-08-25T12:00:20.383Z,100789.34
2022-08-25T12:02:53.013Z,100784.88
2022-08-25T12:05:19.858Z,100783.84
2022-08-25T12:08:12.494Z,100779.38
2022-08-25T12:10:54.030Z,100771.22
2022-08-25T12:13:51.247Z,100777.28
2022-08-25T12:16:36.213Z,100769.72
2022-08-25T12:19:24.417Z,100778.66
2022-08-25T12:21:52.116Z,100768.22
2022-08-25T12:24:25.109Z,100761.13
2022-08-25T12:26:58.139Z,100769.81
2022-08-25T12:30:18.517Z,100763.25
2022-08-25T12:33:14.313Z,100763.50
2022-08-25T12:36:00.975Z,100754.84
2022-08-25T12:38:42.580Z,100750.16
2022-08-25T12:41:13.704Z,100747.53
2022-08-25T12:44:15.815Z,100744.63
2022-08-25T12:46:44.632Z,100752.88
2022-08-25T12:49:34.485Z,100746.06
2022-08-25T12:52:07.071Z,100743.25
2022-08-25T12:54:42.123Z,100727.75
2022-08-25T12:57:25.039Z,100722.50
2022-08-25T12:59:59.346Z,100723.06
2022-08-25T13:02:51.628Z,100722.75
2022-08-25T13:05:21.863Z,100730.94
2022-08-25T13:08:18.130Z,100730.41
2022-08-25T13:11:00.698Z,100710.75
2022-08-25T13:13:57.549Z,100721.25
2022-08-25T13:16:29.666Z,100713.44
2022-08-25T13:18:59.585Z,100706.34
2022-08-25T13:21:42.609Z,100703.69
2022-08-25T13:24:21.366Z,100700.78
2022-08-25T13:26:55.338Z,100701.56
2022-08-25T13:29:25.350Z,100700.56
2022-08-25T13:32:01.991Z,100691.09
2022-08-25T13:34:38.387Z,100686.88
2022-08-25T13:37:29.521Z,100675.88
2022-08-25T13:40:25.962Z,100677.44
2022-08-25T13:43:02.836Z,100677.22
2022-08-25T13:45:32.403Z,100677.81
2022-08-25T13:47:58.949Z,100674.91
2022-08-25T13:50:26.485Z,100674.09
2022-08-25T13:53:04.949Z,100663.88
2022-08-25T13:55:51.657Z,100670.47
2022-08-25T13:58:38.990Z,100660.97
2022-08-25T14:01:48.559Z,100663.06
2022-08-25T14:04:27.601Z,100650.47
2022-08-25T14:07:14.349Z,100648.34
2022-08-25T14:09:48.897Z,100653.63
2022-08-25T14:15:17.553Z,100647.59
2022-08-25T14:17:48.692Z,100645.25
2022-08-25T14:20:29.109Z,100653.63
2022-08-25T14:22:59.359Z,100649.72
2022-08-25T14:25:28.263Z,100643.41
2022-08-25T14:28:16.367Z,100634.72
2022-08-25T14:30:53.849Z,100637.91
2022-08-25T14:33:27.660Z,100636.59
2022-08-25T14:35:55.391Z,100636.06
2022-08-25T14:38:22.923Z,100632.66
2022-08-25T14:40:50.419Z,100631.34
2022-08-25T14:43:17.392Z,100626.63
2022-08-25T14:45:46.826Z,100631.91
2022-08-25T14:48:26.880Z,100630.59
2022-08-25T14:50:55.882Z,100631.69
2022-08-25T14:53:22.397Z,100621.16
2022-08-25T14:55:49.322Z,100615.63
2022-08-25T14:58:18.508Z,100620.13
2022-08-25T15:00:52.951Z,100618.00
2022-08-25T15:03:37.655Z,100611.69
2022-08-25T15:06:06.217Z,100619.34
2022-08-25T15:08:51.250Z,100609.03
2022-08-25T15:11:17.856Z,100621.16
2022-08-25T15:13:49.347Z,100611.44
2022-08-25T15:16:33.973Z,100608.47
2022-08-25T15:19:06.522Z,100611.66
2022-08-25T15:21:34.277Z,100601.66
2022-08-25T15:24:02.555Z,100594.00
2022-08-25T15:26:29.115Z,100602.44
2022-08-25T15:28:55.678Z,100597.66
2022-08-25T15:31:23.558Z,100602.41
2022-08-25T15:33:50.255Z,100597.91
2022-08-25T15:36:24.506Z,100595.53
2022-08-25T15:38:52.608Z,100586.88
2022-08-25T15:41:20.919Z,100583.19
2022-08-25T15:43:51.623Z,100578.97
2022-08-25T15:46:21.181Z,100578.72
2022-08-25T15:48:47.734Z,100584.75
2022-08-25T15:51:16.255Z,100583.19
2022-08-25T15:53:42.956Z,100578.97
2022-08-25T15:56:14.103Z,100578.47
2022-08-25T15:58:49.771Z,100577.66
2022-08-25T16:01:23.729Z,100578.47
2022-08-25T16:03:51.988Z,100579.53
2022-08-25T16:06:19.032Z,100575.06
2022-08-25T16:08:45.952Z,100578.72
2022-08-25T16:11:20.346Z,100573.19
2022-08-25T16:13:48.927Z,100568.97
2022-08-25T16:16:17.745Z,100574.50
2022-08-25T16:18:45.083Z,100577.13
2022-08-25T16:21:13.709Z,100576.06
2022-08-25T16:23:41.122Z,100576.06
2022-08-25T16:26:10.912Z,100573.16
2022-08-25T16:28:43.650Z,100576.59
2022-08-25T16:31:14.020Z,100574.19
2022-08-25T16:36:14.585Z,100567.63
2022-08-25T16:38:42.551Z,100571.56
2022-08-25T16:41:22.474Z,100565.75
2022-08-25T16:43:50.118Z,100568.59
2022-08-25T16:46:19.156Z,100554.63
2022-08-25T16:48:46.998Z,100561.97
2022-08-25T16:51:16.127Z,100560.38
2022-08-25T16:54:04.408Z,100561.13
2022-08-25T16:56:35.076Z,100558.97
2022-08-25T16:59:03.551Z,100559.22
2022-08-25T17:01:36.461Z,100565.25
2022-08-25T17:04:05.192Z,100569.13
2022-08-25T17:06:37.159Z,100567.00
2022-08-25T17:09:05.256Z,100563.84
2022-08-25T17:11:35.938Z,100564.06
2022-08-25T17:14:04.635Z,100561.16
2022-08-25T17:16:37.896Z,100565.06
2022-08-25T17:19:07.103Z,100567.13
2022-08-25T17:21:40.595Z,100559.22
2022-08-25T17:24:12.476Z,100562.31
2022-08-25T17:26:41.556Z,100563.84
2022-08-25T17:29:09.585Z,100562.50
2022-08-25T17:31:40.123Z,100562.72
2022-08-25T17:34:10.584Z,100567.94
2022-08-25T17:36:38.246Z,100563.72
2022-08-25T17:39:08.734Z,100568.91
2022-08-25T17:41:37.589Z,100558.91
2022-08-25T17:44:05.057Z,100569.09
2022-08-25T17:46:32.166Z,100570.09
2022-08-25T17:48:58.906Z,100564.28
2022-08-25T17:54:07.464Z,100578.59
2022-08-25T17:56:34.224Z,100578.81
2022-08-25T17:59:02.052Z,100586.09
2022-08-25T18:01:32.888Z,100581.56
2022-08-25T18:03:59.718Z,100583.09
2022-08-25T18:06:29.570Z,100587.22
2022-08-25T18:08:59.939Z,100587.97
2022-08-25T18:11:28.720Z,100587.06
2022-08-25T18:13:56.757Z,100589.09
2022-08-25T18:16:24.581Z,100585.84
2022-08-25T18:18:52.894Z,100588.63
2022-08-25T18:21:20.482Z,100587.25
2022-08-25T18:23:47.767Z,100588.78
2022-08-25T18:26:15.427Z,100590.00
2022-08-25T18:28:43.922Z,100588.06
2022-08-25T18:31:12.216Z,100591.38
2022-08-25T18:33:44.395Z,100597.25
2022-08-25T18:36:11.735Z,100593.97
2022-08-25T18:38:58.137Z,100595.97
2022-08-25T18:41:26.067Z,100593.22
2022-08-25T18:43:53.043Z,100594.44
2022-08-25T18:46:19.938Z,100593.25
2022-08-25T18:48:49.591Z,100590.78
2022-08-25T18:51:22.874Z,100599.31
2022-08-25T18:53:50.999Z,100596.03
2022-08-25T18:56:19.250Z,100595.13
2022-08-25T18:58:47.164Z,100594.72
2022-08-25T19:01:15.893Z,100603.78
2022-08-25T19:03:43.389Z,100604.16
2022-08-25T19:06:10.661Z,100604.56
2022-08-25T19:08:39.515Z,100606.50
2022-08-25T19:11:09.735Z,100601.94
2022-08-25T19:13:37.151Z,100606.78
2022-08-25T19:16:20.480Z,100610.22
2022-08-25T19:18:48.673Z,100604.66
2022-08-25T19:21:15.410Z,100613.19
2022-08-25T19:23:41.918Z,100609.09
2022-08-25T19:26:17.389Z,100619.69
2022-08-25T19:28:48.571Z,100617.50
2022-08-25T19:31:18.169Z,100622.28
2022-08-25T19:33:46.019Z,100617.97
2022-08-25T19:36:14.105Z,100624.13
2022-08-25T19:38:41.601Z,100627.66
2022-08-25T19:41:10.450Z,100624.66
2022-08-25T19:43:55.482Z,100618.75
2022-08-25T19:46:24.532Z,100615.97
2022-08-25T19:48:51.094Z,100621.56
2022-08-25T19:51:19.315Z,100617.47
2022-08-25T19:53:52.302Z,100619.06
2022-08-25T19:56:21.547Z,100612.88
2022-08-25T19:58:48.059Z,100618.19
2022-08-25T20:01:18.145Z,100617.25
2022-08-25T20:03:45.149Z,100622.53
2022-08-25T20:06:11.764Z,100625.75
2022-08-25T20:08:42.988Z,100623.19
2022-08-25T20:11:09.806Z,100619.81
2022-08-25T20:13:37.007Z,100623.34
2022-08-25T20:16:04.198Z,100624.47
2022-08-25T20:18:32.751Z,100629.59
2022-08-25T20:21:00.548Z,100629.75
2022-08-25T20:23:46.075Z,100620.53
2022-08-25T20:26:12.673Z,100624.03
2022-08-25T20:28:42.105Z,100629.94
2022-08-25T20:31:09.205Z,100628.16
2022-08-25T20:33:36.038Z,100636.16
2022-08-25T20:36:04.686Z,100634.38
2022-08-25T20:38:32.071Z,100635.38
2022-08-25T20:41:00.163Z,100635.47
2022-08-25T20:43:29.545Z,100637.88
2022-08-25T20:46:04.934Z,100633.75
2022-08-25T20:48:31.814Z,100632.13
2022-08-25T20:50:58.329Z,100633.56
2022-08-25T20:53:25.953Z,100633.72
2022-08-25T20:55:52.553Z,100631.81
2022-08-25T20:58:20.346Z,100629.88
2022-08-25T21:00:47.177Z,100635.00
2022-08-25T21:03:14.870Z,100633.06
2022-08-25T21:05:43.245Z,100637.66
2022-08-25T21:08:10.476Z,100630.34
2022-08-25T21:10:37.781Z,100634.34
2022-08-25T21:13:04.328Z,100634.50
2022-08-25T21:15:31.352Z,100632.56
2022-08-25T21:17:57.978Z,100627.00
2022-08-25T21:20:26.176Z,100633.19
2022-08-25T21:22:53.428Z,100626.81
2022-08-25T21:25:21.657Z,100626.97
2022-08-25T21:27:48.227Z,100621.38
2022-08-25T21:30:15.869Z,100619.91
2022-08-25T21:32:53.528Z,100623.41
2022-08-25T21:35:28.881Z,100620.38
2022-08-25T21:37:55.772Z,100617.34
2022-08-25T21:40:22.902Z,100624.16
2022-08-25T21:42:49.861Z,100619.03
2022-08-25T21:45:16.472Z,100630.63
2022-08-25T21:47:47.672Z,100629.66
2022-08-25T21:50:14.181Z,100622.81
2022-08-25T21:52:41.223Z,100622.59
2022-08-25T21:55:15.961Z,100625.16
2022-08-25T21:57:43.829Z,100621.59
2022-08-25T22:00:12.589Z,100621.75
2022-08-25T22:02:39.195Z,100625.06
2022-08-25T22:05:09.254Z,100623.63
2022-08-25T22:07:41.652Z,100628.69
2022-08-25T22:10:09.392Z,100632.50
2022-08-25T22:12:43.909Z,100620.88
2022-08-25T22:15:12.472Z,100623.06
2022-08-25T22:17:40.469Z,100612.22
2022-08-25T22:20:08.323Z,100617.59
2022-08-25T22:22:35.917Z,100613.75
2022-08-25T22:25:03.949Z,100618.34
2022-08-25T22:27:32.942Z,100631.53
2022-08-25T22:30:00.566Z,100627.53
2022-08-25T22:32:27.125Z,100624.03
2022-08-25T22:34:53.876Z,100624.59
2022-08-25T22:37:20.407Z,100624.38
2022-08-25T22:39:47.037Z,100629.44
2022-08-25T22:42:13.936Z,100631.63
2022-08-25T22:44:42.446Z,100625.25
2022-08-25T22:47:10.593Z,100629.50
2022-08-25T22:49:39.323Z,100636.59
2022-08-25T22:52:07.253Z,100635.13
2022-08-25T22:54:36.673Z,100630.81
2022-08-25T22:57:06.653Z,100631.41
2022-08-25T22:59:33.998Z,100636.44
2022-08-25T23:02:00.702Z,100635.44
2022-08-25T23:04:27.415Z,100636.81
2022-08-25T23:06:54.004Z,100639.44
2022-08-25T23:09:21.456Z,100631.44
2022-08-25T23:11:51.279Z,100635.69
2022-08-25T23:14:18.824Z,100633.75
2022-08-25T23:16:45.410Z,100634.31
2022-08-25T23:19:14.278Z,100632.03
2022-08-25T23:22:01.849Z,100644.38
2022-08-25T23:24:30.633Z,100632.28
2022-08-25T23:27:02.268Z,100627.97
2022-08-25T23:29:31.771Z,100635.47
2022-08-25T23:31:58.762Z,100638.47
2022-08-25T23:34:26.041Z,100636.53
2022-08-25T23:36:53.063Z,100633.00
2022-08-25T23:39:21.703Z,100627.38
2022-08-25T23:41:49.074Z,100630.34
2022-08-25T23:44:17.092Z,100629.19
2022-08-25T23:46:45.277Z,100633.78
2022-08-25T23:49:18.366Z,100625.78
2022-08-25T23:51:47.081Z,100620.97
2022-08-25T23:54:13.746Z,100625.88
2022-08-25T23:56:44.521Z,100622.34
2022-08-25T23:59:18.389Z,100624.88
